createdAt,value
2023-02-21T00:00:39.937Z,66.43
2023-02-21T00:03:25.127Z,64.13
2023-02-21T00:06:09.997Z,64.05
2023-02-21T00:08:54.932Z,63.15
2023-02-21T00:11:39.699Z,66.30
2023-02-21T00:14:24.728Z,65.72
2023-02-21T00:17:10.781Z,61.70
2023-02-21T00:19:55.712Z,59.75
2023-02-21T00:22:40.468Z,62.45
2023-02-21T00:25:25.674Z,64.45
2023-02-21T00:30:55.639Z,62.03
2023-02-21T00:33:41.761Z,65.90
2023-02-21T00:36:26.773Z,66.10
2023-02-21T00:41:56.639Z,70.68
2023-02-21T00:44:41.594Z,69.25
2023-02-21T00:47:26.370Z,59.50
2023-02-21T00:50:12.704Z,59.45
2023-02-21T00:52:57.692Z,65.47
2023-02-21T00:55:42.511Z,67.95
2023-02-21T00:58:27.491Z,70.60
2023-02-21T01:01:12.639Z,62.63
2023-02-21T01:03:57.708Z,62.17
2023-02-21T01:06:44.173Z,57.58
2023-02-21T01:09:29.007Z,67.53
2023-02-21T01:12:13.747Z,63.80
2023-02-21T01:14:58.638Z,62.47
2023-02-21T01:17:43.366Z,55.20
2023-02-21T01:20:28.711Z,63.85
2023-02-21T01:23:14.811Z,65.38
2023-02-21T01:25:59.701Z,62.33
2023-02-21T01:28:44.668Z,66.22
2023-02-21T01:31:29.418Z,68.18
2023-02-21T01:34:14.387Z,70.03
2023-02-21T01:36:59.054Z,66.68
2023-02-21T01:39:45.078Z,74.25
2023-02-21T01:42:29.715Z,69.45
2023-02-21T01:45:47.720Z,60.15
2023-02-21T01:48:35.581Z,72.00
2023-02-21T01:51:21.311Z,70.88
2023-02-21T01:54:06.117Z,70.65
2023-02-21T01:56:52.992Z,69.70
2023-02-21T01:59:40.027Z,72.70
2023-02-21T02:02:27.882Z,73.00
2023-02-21T02:05:13.815Z,68.90
2023-02-21T02:07:58.658Z,69.40
2023-02-21T02:10:43.931Z,70.70
2023-02-21T02:13:23.093Z,71.53
2023-02-21T02:15:53.043Z,65.32
2023-02-21T02:18:45.638Z,68.55
2023-02-21T02:21:27.832Z,66.30
2023-02-21T02:24:10.049Z,73.82
2023-02-21T02:26:57.671Z,66.80
2023-02-21T02:29:36.454Z,69.57
2023-02-21T02:32:21.494Z,68.13
2023-02-21T02:34:54.602Z,74.55
2023-02-21T02:37:24.446Z,70.32
2023-02-21T02:39:56.900Z,73.32
2023-02-21T02:42:31.478Z,72.85
2023-02-21T02:45:01.043Z,64.70
2023-02-21T02:47:32.172Z,62.55
2023-02-21T02:50:01.563Z,71.50
2023-02-21T02:52:28.859Z,64.25
2023-02-21T02:54:59.797Z,71.65
2023-02-21T02:57:27.997Z,63.40
2023-02-21T02:59:55.564Z,63.97
2023-02-21T03:02:34.867Z,67.00
2023-02-21T03:05:10.156Z,63.85
2023-02-21T03:07:40.884Z,59.42
2023-02-21T03:10:13.309Z,65.53
2023-02-21T03:12:45.340Z,60.05
2023-02-21T03:15:15.270Z,61.25
2023-02-21T03:17:44.306Z,60.95
2023-02-21T03:20:15.269Z,59.00
2023-02-21T03:22:44.516Z,61.00
2023-02-21T03:25:12.574Z,60.97
2023-02-21T03:27:41.262Z,60.97
2023-02-21T03:30:09.367Z,66.07
2023-02-21T03:32:39.598Z,58.53
2023-02-21T03:35:07.354Z,57.47
2023-02-21T03:37:37.071Z,55.25
2023-02-21T03:40:05.559Z,55.22
2023-02-21T03:42:32.880Z,63.00
2023-02-21T03:45:00.190Z,56.00
2023-02-21T03:47:27.487Z,58.45
2023-02-21T03:49:54.774Z,57.20
2023-02-21T03:52:22.098Z,50.28
2023-02-21T03:54:50.897Z,53.10
2023-02-21T03:57:18.253Z,55.42
2023-02-21T03:59:45.777Z,52.50
2023-02-21T04:02:13.189Z,54.60
2023-02-21T04:04:40.536Z,54.95
2023-02-21T04:07:08.383Z,53.03
2023-02-21T04:09:35.729Z,55.15
2023-02-21T04:12:04.480Z,57.80
2023-02-21T04:14:32.049Z,58.80
2023-02-21T04:16:59.369Z,54.22
2023-02-21T04:19:26.646Z,54.08
2023-02-21T04:21:53.943Z,55.33
2023-02-21T04:24:21.287Z,56.17
2023-02-21T04:26:48.762Z,53.45
2023-02-21T04:29:17.548Z,57.28
2023-02-21T04:31:45.036Z,57.17
2023-02-21T04:34:12.610Z,58.60
2023-02-21T04:36:40.144Z,52.63
2023-02-21T04:39:07.937Z,60.58
2023-02-21T04:41:35.502Z,58.75
2023-02-21T04:44:02.883Z,57.83
2023-02-21T04:46:31.547Z,56.20
2023-02-21T04:48:58.995Z,54.17
2023-02-21T04:51:26.680Z,54.33
2023-02-21T04:53:55.252Z,53.50
2023-02-21T04:56:23.478Z,55.22
2023-02-21T04:58:50.857Z,55.78
2023-02-21T05:01:19.722Z,51.83
2023-02-21T05:03:48.721Z,52.25
2023-02-21T05:06:19.582Z,52.28
2023-02-21T05:08:46.967Z,48.65
2023-02-21T05:11:14.766Z,54.22
2023-02-21T05:13:42.903Z,52.45
2023-02-21T05:16:10.479Z,52.28
2023-02-21T05:18:38.137Z,51.05
2023-02-21T05:21:07.246Z,55.88
2023-02-21T05:23:34.857Z,53.60
2023-02-21T05:26:02.716Z,55.15
2023-02-21T05:28:30.144Z,59.05
2023-02-21T05:31:00.461Z,55.75
2023-02-21T05:33:28.558Z,59.55
2023-02-21T05:35:55.973Z,54.10
2023-02-21T05:38:25.594Z,51.88
2023-02-21T05:40:53.292Z,56.38
2023-02-21T05:43:23.626Z,56.05
2023-02-21T05:45:51.059Z,58.67
2023-02-21T05:48:18.381Z,54.85
2023-02-21T05:50:45.878Z,52.85
2023-02-21T05:53:13.163Z,61.85
2023-02-21T05:55:42.066Z,50.83
2023-02-21T05:58:09.363Z,56.78
2023-02-21T06:00:36.681Z,54.78
2023-02-21T06:03:05.086Z,58.50
2023-02-21T06:05:32.504Z,61.47
2023-02-21T06:08:00.226Z,60.15
2023-02-21T06:10:27.545Z,62.00
2023-02-21T06:12:56.253Z,56.72
2023-02-21T06:15:23.776Z,61.85
2023-02-21T06:17:51.050Z,65.47
2023-02-21T06:20:19.164Z,57.85
2023-02-21T06:22:47.293Z,57.83
2023-02-21T06:25:14.759Z,56.03
2023-02-21T06:27:43.676Z,68.60
2023-02-21T06:30:13.391Z,61.53
2023-02-21T06:32:40.742Z,59.90
2023-02-21T06:35:08.290Z,66.32
2023-02-21T06:37:35.629Z,64.75
2023-02-21T06:40:04.852Z,65.47
2023-02-21T06:42:32.219Z,66.25
2023-02-21T06:44:59.590Z,64.95
2023-02-21T06:47:28.254Z,67.82
2023-02-21T06:49:55.560Z,61.60
2023-02-21T06:52:22.885Z,66.45
2023-02-21T06:54:50.862Z,65.25
2023-02-21T06:57:18.497Z,62.05
2023-02-21T06:59:45.869Z,59.28
2023-02-21T07:02:18.119Z,67.53
2023-02-21T07:04:46.941Z,63.75
2023-02-21T07:07:14.427Z,65.22
2023-02-21T07:09:41.824Z,62.85
2023-02-21T07:12:09.549Z,66.38
2023-02-21T07:14:36.893Z,60.33
2023-02-21T07:17:04.240Z,66.22
2023-02-21T07:19:31.583Z,56.70
2023-02-21T07:22:00.378Z,57.60
2023-02-21T07:24:27.694Z,64.28
2023-02-21T07:26:54.977Z,67.13
2023-02-21T07:29:22.453Z,65.55
2023-02-21T07:31:49.893Z,67.50
2023-02-21T07:34:17.454Z,64.97
2023-02-21T07:36:44.798Z,60.90
2023-02-21T07:39:13.439Z,60.55
2023-02-21T07:41:40.985Z,65.45
2023-02-21T07:44:08.696Z,62.25
2023-02-21T07:46:36.011Z,60.83
2023-02-21T07:49:03.287Z,64.53
2023-02-21T07:51:30.799Z,58.65
2023-02-21T07:53:58.079Z,61.28
2023-02-21T07:56:26.713Z,57.75
2023-02-21T07:58:54.444Z,55.55
2023-02-21T08:01:23.518Z,58.90
2023-02-21T08:03:50.911Z,61.72
2023-02-21T08:06:18.753Z,66.03
2023-02-21T08:08:46.245Z,59.03
2023-02-21T08:11:13.970Z,62.38
2023-02-21T08:13:42.774Z,66.72
2023-02-21T08:16:10.307Z,66.30
2023-02-21T08:18:37.709Z,64.40
2023-02-21T08:21:05.364Z,67.05
2023-02-21T08:23:32.608Z,63.42
2023-02-21T08:25:59.910Z,62.58
2023-02-21T08:28:27.173Z,65.00
2023-02-21T08:30:55.821Z,62.03
2023-02-21T08:33:23.241Z,62.58
2023-02-21T08:35:51.036Z,62.17
2023-02-21T08:38:18.878Z,64.00
2023-02-21T08:40:46.263Z,63.47
2023-02-21T08:43:13.702Z,61.15
2023-02-21T08:45:41.290Z,58.00
2023-02-21T08:48:10.028Z,65.65
2023-02-21T08:50:37.672Z,66.35
2023-02-21T08:53:04.967Z,66.47
2023-02-21T08:55:32.329Z,61.88
2023-02-21T08:57:59.675Z,62.30
2023-02-21T09:00:29.628Z,61.05
2023-02-21T09:02:58.091Z,63.80
2023-02-21T09:05:27.749Z,66.68
2023-02-21T09:07:58.754Z,64.55
2023-02-21T09:10:26.654Z,58.15
2023-02-21T09:12:54.001Z,60.22
2023-02-21T09:15:21.307Z,64.18
2023-02-21T09:17:50.604Z,59.55
2023-02-21T09:20:18.956Z,52.00
2023-02-21T09:22:48.033Z,60.10
2023-02-21T09:25:16.398Z,64.03
2023-02-21T09:27:43.713Z,60.30
2023-02-21T09:30:12.331Z,59.42
2023-02-21T09:32:40.181Z,52.45
2023-02-21T09:35:07.992Z,49.28
2023-02-21T09:37:37.906Z,53.15
2023-02-21T09:40:08.727Z,50.72
2023-02-21T09:42:36.565Z,50.38
2023-02-21T09:45:04.840Z,51.45
2023-02-21T09:47:34.195Z,51.25
2023-02-21T09:50:02.390Z,49.88
2023-02-21T09:52:33.466Z,46.22
2023-02-21T09:55:03.228Z,49.30
2023-02-21T09:57:31.869Z,50.78
2023-02-21T09:59:59.862Z,50.10
2023-02-21T10:02:40.691Z,50.67
2023-02-21T10:05:13.499Z,49.42
2023-02-21T10:07:46.445Z,55.92
2023-02-21T10:10:15.733Z,50.03
2023-02-21T10:12:47.758Z,46.67
2023-02-21T10:15:19.693Z,46.30
2023-02-21T10:17:50.290Z,45.20
2023-02-21T10:20:27.837Z,49.30
2023-02-21T10:22:56.122Z,48.63
2023-02-21T10:25:25.931Z,51.47
2023-02-21T10:27:55.088Z,49.85
2023-02-21T10:30:26.972Z,54.75
2023-02-21T10:32:54.363Z,51.42
2023-02-21T10:35:21.683Z,46.13
2023-02-21T10:37:50.719Z,50.58
2023-02-21T10:40:25.688Z,48.50
2023-02-21T10:42:55.369Z,49.58
2023-02-21T10:45:27.579Z,53.90
2023-02-21T10:47:57.386Z,52.53
2023-02-21T10:50:39.042Z,43.78
2023-02-21T10:53:07.076Z,42.97
2023-02-21T10:55:34.410Z,46.15
2023-02-21T10:58:07.276Z,50.17
2023-02-21T11:00:37.017Z,48.85
2023-02-21T11:03:05.231Z,51.95
2023-02-21T11:05:32.945Z,51.58
2023-02-21T11:08:01.219Z,51.17
2023-02-21T11:10:32.581Z,44.92
2023-02-21T11:13:03.788Z,43.65
2023-02-21T11:15:31.176Z,47.80
2023-02-21T11:18:05.553Z,44.13
2023-02-21T11:20:33.420Z,51.78
2023-02-21T11:23:00.725Z,49.22
2023-02-21T11:25:29.651Z,46.00
2023-02-21T11:28:01.861Z,43.50
2023-02-21T11:30:29.613Z,44.47
2023-02-21T11:32:58.072Z,44.03
2023-02-21T11:35:28.245Z,38.38
2023-02-21T11:37:56.677Z,42.63
2023-02-21T11:40:25.590Z,44.22
2023-02-21T11:42:52.930Z,42.42
2023-02-21T11:45:22.922Z,44.25
2023-02-21T11:47:56.005Z,43.00
2023-02-21T11:50:25.550Z,46.28
2023-02-21T11:52:57.866Z,44.50
2023-02-21T11:55:26.642Z,45.75
2023-02-21T11:57:58.584Z,45.88
2023-02-21T12:00:28.294Z,45.35
2023-02-21T12:03:00.829Z,46.00
2023-02-21T12:05:33.433Z,49.80
2023-02-21T12:08:12.517Z,49.45
2023-02-21T12:10:42.609Z,44.50
2023-02-21T12:13:17.749Z,49.75
2023-02-21T12:15:54.530Z,47.42
2023-02-21T12:18:30.062Z,48.35
2023-02-21T12:21:05.877Z,50.50
2023-02-21T12:23:41.002Z,49.78
2023-02-21T12:26:15.932Z,54.67
2023-02-21T12:28:52.652Z,53.38
2023-02-21T12:31:25.274Z,54.20
2023-02-21T12:33:59.115Z,54.00
2023-02-21T12:36:39.055Z,56.38
2023-02-21T12:39:16.799Z,48.00
2023-02-21T12:41:59.044Z,50.17
2023-02-21T12:44:32.836Z,51.05
2023-02-21T12:47:02.333Z,48.70
2023-02-21T12:49:32.272Z,53.25
2023-02-21T12:52:02.217Z,57.30
2023-02-21T12:54:37.214Z,55.88
2023-02-21T12:57:07.209Z,53.35
2023-02-21T12:59:40.805Z,50.92
2023-02-21T13:02:13.622Z,49.13
2023-02-21T13:04:45.883Z,52.47
2023-02-21T13:07:19.211Z,52.08
2023-02-21T13:09:50.836Z,50.33
2023-02-21T13:12:20.482Z,51.60
2023-02-21T13:14:49.743Z,56.00
2023-02-21T13:17:18.233Z,53.47
2023-02-21T13:19:47.802Z,47.85
2023-02-21T13:22:52.184Z,50.97
2023-02-21T13:25:26.625Z,49.60
2023-02-21T13:27:58.306Z,38.90
2023-02-21T13:30:28.451Z,39.60
2023-02-21T13:32:56.996Z,41.47
2023-02-21T13:35:30.796Z,41.47
2023-02-21T13:37:59.379Z,39.30
2023-02-21T13:40:35.089Z,40.47
2023-02-21T13:43:04.999Z,43.20
2023-02-21T13:45:32.477Z,44.72
2023-02-21T13:48:18.528Z,50.70
2023-02-21T13:50:46.466Z,44.25
2023-02-21T13:53:16.736Z,47.05
2023-02-21T13:56:12.912Z,45.72
2023-02-21T13:58:40.861Z,44.97
2023-02-21T14:01:16.037Z,45.90
2023-02-21T14:03:43.752Z,40.90
2023-02-21T14:06:32.087Z,39.40
2023-02-21T14:09:02.063Z,42.80
2023-02-21T14:11:37.467Z,41.38
2023-02-21T14:14:05.862Z,41.58
2023-02-21T14:16:34.933Z,36.15
2023-02-21T14:21:35.401Z,35.78
2023-02-21T14:24:03.935Z,38.03
2023-02-21T14:26:36.951Z,38.47
2023-02-21T14:29:15.253Z,34.95
2023-02-21T14:31:53.845Z,31.70
2023-02-21T14:34:23.700Z,37.45
2023-02-21T14:36:52.096Z,32.85
2023-02-21T14:39:20.254Z,35.50
2023-02-21T14:41:58.157Z,37.72
2023-02-21T14:44:28.386Z,36.28
2023-02-21T14:47:06.372Z,36.85
2023-02-21T14:49:54.468Z,35.65
2023-02-21T14:52:39.919Z,35.25
2023-02-21T14:55:24.362Z,38.40
2023-02-21T14:58:15.993Z,37.72
2023-02-21T15:00:48.910Z,37.10
2023-02-21T15:03:19.764Z,38.22
2023-02-21T15:05:54.065Z,36.45
2023-02-21T15:08:23.560Z,37.55
2023-02-21T15:10:53.347Z,39.60
2023-02-21T15:13:22.243Z,36.97
2023-02-21T15:15:56.049Z,39.38
2023-02-21T15:18:27.469Z,41.17
2023-02-21T15:21:05.268Z,42.90
2023-02-21T15:23:33.281Z,45.45
2023-02-21T15:26:02.494Z,47.60
2023-02-21T15:28:33.270Z,47.05
2023-02-21T15:31:04.131Z,48.03
2023-02-21T15:33:33.600Z,57.72
2023-02-21T15:36:02.494Z,48.15
2023-02-21T15:38:31.521Z,53.25
2023-02-21T15:41:01.637Z,52.05
2023-02-21T15:43:32.569Z,54.95
2023-02-21T15:46:01.658Z,59.30
2023-02-21T15:48:31.235Z,56.92
2023-02-21T15:51:01.913Z,57.58
2023-02-21T15:53:29.478Z,59.58
2023-02-21T15:56:15.522Z,61.28
2023-02-21T15:59:03.041Z,57.75
2023-02-21T16:01:30.574Z,63.40
2023-02-21T16:04:12.769Z,62.83
2023-02-21T16:06:45.809Z,62.45
2023-02-21T16:09:24.125Z,63.03
2023-02-21T16:11:52.954Z,68.72
2023-02-21T16:14:22.820Z,62.33
2023-02-21T16:16:53.856Z,66.55
2023-02-21T16:19:22.622Z,73.78
2023-02-21T16:21:51.435Z,74.13
2023-02-21T16:24:29.106Z,69.63
2023-02-21T16:27:03.732Z,76.90
2023-02-21T16:29:31.058Z,73.90
2023-02-21T16:31:58.444Z,72.80
2023-02-21T16:34:26.164Z,71.63
2023-02-21T16:37:01.560Z,69.13
2023-02-21T16:39:30.597Z,68.30
2023-02-21T16:41:58.058Z,68.35
2023-02-21T16:44:25.392Z,68.32
2023-02-21T16:46:54.348Z,63.65
2023-02-21T16:49:21.706Z,66.28
2023-02-21T16:51:49.148Z,71.43
2023-02-21T16:54:18.198Z,71.18
2023-02-21T16:56:47.339Z,74.55
2023-02-21T16:59:15.821Z,72.78
2023-02-21T17:01:43.422Z,78.43
2023-02-21T17:04:15.299Z,80.50
2023-02-21T17:06:42.799Z,77.30
2023-02-21T17:09:17.991Z,85.55
2023-02-21T17:11:46.813Z,85.40
2023-02-21T17:14:14.662Z,95.60
2023-02-21T17:16:44.822Z,96.03
2023-02-21T17:19:15.665Z,90.82
2023-02-21T17:21:43.221Z,93.35
2023-02-21T17:24:11.905Z,89.80
2023-02-21T17:26:39.470Z,98.47
2023-02-21T17:29:08.730Z,89.90
2023-02-21T17:31:36.269Z,93.32
2023-02-21T17:34:03.783Z,101.45
2023-02-21T17:36:31.478Z,86.68
2023-02-21T17:38:59.115Z,91.90
2023-02-21T17:41:27.446Z,85.82
2023-02-21T17:43:55.094Z,83.43
2023-02-21T17:46:24.654Z,91.95
2023-02-21T17:48:54.636Z,87.53
2023-02-21T17:51:23.495Z,87.90
2023-02-21T17:53:51.372Z,94.70
2023-02-21T17:56:19.415Z,98.15
2023-02-21T17:58:46.944Z,93.80
2023-02-21T18:01:18.560Z,103.68
2023-02-21T18:03:48.343Z,99.93
2023-02-21T18:06:16.177Z,108.00
2023-02-21T18:08:44.763Z,101.40
2023-02-21T18:11:13.005Z,107.22
2023-02-21T18:13:40.638Z,113.60
2023-02-21T18:16:08.414Z,107.93
2023-02-21T18:18:36.231Z,98.97
2023-02-21T18:21:05.412Z,111.43
2023-02-21T18:23:33.537Z,116.00
2023-02-21T18:26:01.188Z,113.50
2023-02-21T18:28:28.935Z,109.10
2023-02-21T18:30:56.438Z,112.15
2023-02-21T18:33:26.947Z,108.50
2023-02-21T18:35:54.830Z,112.18
2023-02-21T18:38:24.079Z,111.25
2023-02-21T18:40:51.448Z,108.25
2023-02-21T18:43:20.309Z,97.05
2023-02-21T18:45:47.935Z,110.25
2023-02-21T18:48:15.546Z,109.68
2023-02-21T18:50:43.447Z,104.88
2023-02-21T18:53:10.975Z,121.22
2023-02-21T18:55:39.646Z,109.60
2023-02-21T18:58:07.522Z,117.35
2023-02-21T19:00:36.250Z,102.20
2023-02-21T19:03:03.973Z,109.40
2023-02-21T19:05:31.333Z,124.63
2023-02-21T19:07:59.413Z,112.03
2023-02-21T19:10:27.335Z,124.38
2023-02-21T19:12:59.127Z,134.07
2023-02-21T19:15:26.865Z,140.00
2023-02-21T19:17:54.168Z,121.63
2023-02-21T19:20:21.488Z,136.32
2023-02-21T19:22:48.915Z,131.23
2023-02-21T19:25:16.869Z,131.73
2023-02-21T19:27:44.680Z,130.85
2023-02-21T19:30:14.496Z,140.27
2023-02-21T19:32:41.888Z,137.65
2023-02-21T19:35:09.274Z,133.05
2023-02-21T19:37:38.768Z,126.25
2023-02-21T19:40:07.917Z,139.55
2023-02-21T19:42:35.455Z,129.77
2023-02-21T19:45:02.844Z,151.68
2023-02-21T19:47:31.515Z,143.20
2023-02-21T19:49:58.841Z,136.50
2023-02-21T19:52:26.216Z,130.18
2023-02-21T19:54:53.587Z,141.68
2023-02-21T19:57:20.920Z,132.65
2023-02-21T19:59:48.251Z,159.13
2023-02-21T20:02:16.431Z,141.77
2023-02-21T20:04:45.063Z,141.80
2023-02-21T20:07:12.562Z,140.30
2023-02-21T20:09:39.951Z,154.02
2023-02-21T20:12:08.002Z,133.32
2023-02-21T20:14:35.544Z,138.02
2023-02-21T20:17:02.888Z,140.13
2023-02-21T20:19:30.214Z,142.32
2023-02-21T20:21:58.958Z,144.35
2023-02-21T20:24:26.395Z,132.02
2023-02-21T20:26:54.515Z,131.73
2023-02-21T20:29:23.328Z,135.93
2023-02-21T20:31:50.845Z,124.68
2023-02-21T20:34:18.204Z,137.90
2023-02-21T20:36:46.435Z,149.27
2023-02-21T20:39:20.238Z,142.20
2023-02-21T20:41:47.719Z,145.67
2023-02-21T20:44:15.175Z,149.70
2023-02-21T20:46:42.693Z,136.32
2023-02-21T20:49:13.985Z,137.35
2023-02-21T20:51:42.885Z,146.13
2023-02-21T20:54:11.023Z,134.88
2023-02-21T20:56:40.777Z,144.05
2023-02-21T20:59:09.904Z,133.27
2023-02-21T21:01:37.271Z,143.88
2023-02-21T21:04:07.956Z,175.40
2023-02-21T21:06:36.763Z,153.32
2023-02-21T21:09:04.472Z,149.18
2023-02-21T21:11:32.555Z,151.10
2023-02-21T21:14:02.716Z,152.55
2023-02-21T21:16:30.102Z,163.73
2023-02-21T21:18:58.938Z,153.63
2023-02-21T21:21:28.809Z,146.90
2023-02-21T21:23:56.394Z,145.93
2023-02-21T21:26:25.492Z,155.85
2023-02-21T21:28:52.883Z,150.27
2023-02-21T21:31:23.519Z,156.60
2023-02-21T21:33:51.091Z,164.90
2023-02-21T21:36:19.098Z,153.05
2023-02-21T21:38:46.973Z,154.85
2023-02-21T21:41:14.759Z,146.07
2023-02-21T21:43:43.575Z,144.30
2023-02-21T21:46:11.671Z,162.32
2023-02-21T21:48:42.446Z,154.27
2023-02-21T21:51:10.073Z,158.52
2023-02-21T21:53:39.815Z,160.82
2023-02-21T21:56:07.384Z,183.43
2023-02-21T21:58:35.201Z,189.75
2023-02-21T22:01:05.254Z,171.02
2023-02-21T22:03:32.653Z,187.75
2023-02-21T22:06:01.363Z,189.00
2023-02-21T22:08:31.075Z,186.75
2023-02-21T22:11:00.048Z,190.73
2023-02-21T22:13:29.341Z,202.82
2023-02-21T22:15:56.864Z,195.18
2023-02-21T22:18:24.602Z,222.30
2023-02-21T22:20:52.014Z,216.40
2023-02-21T22:23:22.570Z,209.68
2023-02-21T22:25:49.850Z,210.02
2023-02-21T22:28:18.514Z,218.65
2023-02-21T22:30:46.931Z,242.65
2023-02-21T22:33:19.678Z,260.20
2023-02-21T22:35:47.242Z,261.88
2023-02-21T22:38:17.191Z,257.40
2023-02-21T22:40:46.174Z,263.95
2023-02-21T22:43:13.815Z,318.75
2023-02-21T22:45:44.227Z,226.63
2023-02-21T22:48:11.720Z,572.65
2023-02-21T22:50:39.590Z,802.95
2023-02-21T22:53:08.870Z,558.92
2023-02-21T22:55:37.415Z,398.23
2023-02-21T22:58:07.519Z,515.88
2023-02-21T23:00:35.538Z,573.83
2023-02-21T23:03:12.442Z,599.17
2023-02-21T23:05:40.304Z,615.20
2023-02-21T23:08:07.584Z,592.97
2023-02-21T23:10:40.138Z,686.75
2023-02-21T23:13:09.957Z,498.08
2023-02-21T23:15:37.567Z,800.55
2023-02-21T23:18:05.277Z,798.83
2023-02-21T23:20:33.688Z,890.25
2023-02-21T23:23:01.761Z,859.22
2023-02-21T23:25:34.882Z,646.35
2023-02-21T23:28:04.568Z,900.53
2023-02-21T23:30:40.126Z,585.28
2023-02-21T23:33:08.190Z,814.10
2023-02-21T23:35:36.081Z,921.95
2023-02-21T23:38:04.009Z,604.88
2023-02-21T23:40:31.361Z,596.83
2023-02-21T23:42:58.663Z,580.15
2023-02-21T23:45:26.755Z,566.50
2023-02-21T23:47:56.372Z,606.92
2023-02-21T23:50:30.329Z,647.75
2023-02-21T23:52:58.746Z,439.60
2023-02-21T23:55:29.833Z,670.97
2023-02-21T23:57:59.716Z,649.35
